createdAt,value
2023-04-22T00:00:40.638Z,6.68
2023-04-22T00:03:10.471Z,6.67
2023-04-22T00:05:38.691Z,6.65
2023-04-22T00:08:06.559Z,6.65
2023-04-22T00:10:34.620Z,6.65
2023-04-22T00:13:02.829Z,6.65
2023-04-22T00:15:30.773Z,6.66
2023-04-22T00:17:58.780Z,6.67
2023-04-22T00:20:26.639Z,6.68
2023-04-22T00:22:54.460Z,6.68
2023-04-22T00:25:22.477Z,6.69
2023-04-22T00:27:50.354Z,6.68
2023-04-22T00:30:18.308Z,6.67
2023-04-22T00:32:48.574Z,6.67
2023-04-22T00:35:16.415Z,6.68
2023-04-22T00:37:44.340Z,6.70
2023-04-22T00:40:12.571Z,6.72
2023-04-22T00:42:43.385Z,6.74
2023-04-22T00:45:25.680Z,6.74
2023-04-22T00:47:54.014Z,6.73
2023-04-22T00:50:21.813Z,6.69
2023-04-22T00:52:50.111Z,6.65
2023-04-22T00:55:18.238Z,6.64
2023-04-22T00:57:49.349Z,6.61
2023-04-22T01:00:19.612Z,6.60
2023-04-22T01:02:48.264Z,6.60
2023-04-22T01:05:17.097Z,6.60
2023-04-22T01:07:45.037Z,6.61
2023-04-22T01:10:13.378Z,6.61
2023-04-22T01:12:41.402Z,6.61
2023-04-22T01:15:10.545Z,6.64
2023-04-22T01:17:38.394Z,6.64
2023-04-22T01:20:09.673Z,6.65
2023-04-22T01:22:45.061Z,6.66
2023-04-22T01:25:13.241Z,6.65
2023-04-22T01:27:41.506Z,6.62
2023-04-22T01:30:10.897Z,6.61
2023-04-22T01:32:40.848Z,6.59
2023-04-22T01:35:10.428Z,6.58
2023-04-22T01:37:39.023Z,6.55
2023-04-22T01:40:10.118Z,6.54
2023-04-22T01:42:38.971Z,6.54
2023-04-22T01:45:07.969Z,6.54
2023-04-22T01:47:35.932Z,6.56
2023-04-22T01:50:04.033Z,6.57
2023-04-22T01:52:31.954Z,6.58
2023-04-22T01:55:00.858Z,6.58
2023-04-22T01:57:31.955Z,6.59
2023-04-22T02:00:00.694Z,6.60
2023-04-22T02:02:28.691Z,6.60
2023-04-22T02:04:57.521Z,6.58
2023-04-22T02:07:25.654Z,6.57
2023-04-22T02:09:53.525Z,6.56
2023-04-22T02:12:21.477Z,6.56
2023-04-22T02:14:49.229Z,6.55
2023-04-22T02:17:17.399Z,6.53
2023-04-22T02:19:46.729Z,6.51
2023-04-22T02:22:15.211Z,6.47
2023-04-22T02:24:43.256Z,6.47
2023-04-22T02:27:11.219Z,6.45
2023-04-22T02:29:39.224Z,6.44
2023-04-22T02:32:08.079Z,6.42
2023-04-22T02:34:36.034Z,6.41
2023-04-22T02:37:03.794Z,6.39
2023-04-22T02:39:31.983Z,6.39
2023-04-22T02:42:00.888Z,6.37
2023-04-22T02:44:28.637Z,6.37
2023-04-22T02:46:56.532Z,6.35
2023-04-22T02:49:24.583Z,6.30
2023-04-22T02:51:53.585Z,6.26
2023-04-22T02:54:21.500Z,6.27
2023-04-22T02:56:49.232Z,6.27
2023-04-22T02:59:17.034Z,6.24
2023-04-22T03:01:45.130Z,6.24
2023-04-22T03:04:15.439Z,6.22
2023-04-22T03:06:43.842Z,6.19
2023-04-22T03:09:11.870Z,6.19
2023-04-22T03:11:39.590Z,6.19
2023-04-22T03:14:07.488Z,6.20
2023-04-22T03:16:35.468Z,6.20
2023-04-22T03:19:04.959Z,6.19
2023-04-22T03:21:32.646Z,6.14
2023-04-22T03:24:00.712Z,6.11
2023-04-22T03:26:28.976Z,6.07
2023-04-22T03:28:56.869Z,6.04
2023-04-22T03:31:24.695Z,6.01
2023-04-22T03:33:52.633Z,6.01
2023-04-22T03:36:22.475Z,5.98
2023-04-22T03:38:51.102Z,5.95
2023-04-22T03:41:19.329Z,5.94
2023-04-22T03:43:48.572Z,5.94
2023-04-22T03:46:17.653Z,5.96
2023-04-22T03:48:47.234Z,5.98
2023-04-22T03:51:16.913Z,6.10
2023-04-22T03:53:44.974Z,6.41
2023-04-22T03:56:17.690Z,6.90
2023-04-22T03:58:52.115Z,7.22
2023-04-22T04:01:20.171Z,7.23
2023-04-22T04:03:50.050Z,7.17
2023-04-22T04:06:18.292Z,7.10
2023-04-22T04:08:46.787Z,7.03
2023-04-22T04:11:14.482Z,6.97
2023-04-22T04:13:42.312Z,6.91
2023-04-22T04:16:15.983Z,6.88
2023-04-22T04:18:44.576Z,6.94
2023-04-22T04:21:12.879Z,7.02
2023-04-22T04:23:42.439Z,7.55
2023-04-22T04:26:10.544Z,8.05
2023-04-22T04:28:41.072Z,8.40
2023-04-22T04:31:09.436Z,9.01
2023-04-22T04:33:38.858Z,9.75
2023-04-22T04:36:08.591Z,10.44
2023-04-22T04:38:36.923Z,10.98
2023-04-22T04:41:05.166Z,11.54
2023-04-22T04:43:34.712Z,12.16
2023-04-22T04:46:05.064Z,12.62
2023-04-22T04:48:35.586Z,13.07
2023-04-22T04:51:05.699Z,13.57
2023-04-22T04:53:35.382Z,13.88
2023-04-22T04:56:03.365Z,13.61
2023-04-22T04:58:32.810Z,13.96
2023-04-22T05:01:02.551Z,14.37
2023-04-22T05:03:31.208Z,14.85
2023-04-22T05:06:02.825Z,14.89
2023-04-22T05:08:30.814Z,14.22
2023-04-22T05:11:00.878Z,13.49
2023-04-22T05:13:29.497Z,12.96
2023-04-22T05:15:57.715Z,12.60
2023-04-22T05:18:27.560Z,12.13
2023-04-22T05:20:57.519Z,11.81
2023-04-22T05:23:26.930Z,11.55
2023-04-22T05:26:00.046Z,11.31
2023-04-22T05:28:28.177Z,11.25
2023-04-22T05:30:59.511Z,11.04
2023-04-22T05:33:31.361Z,10.87
2023-04-22T05:35:59.506Z,10.71
2023-04-22T05:38:28.244Z,10.68
2023-04-22T05:40:56.830Z,10.79
2023-04-22T05:43:25.512Z,11.11
2023-04-22T05:45:57.669Z,11.49
2023-04-22T05:48:25.704Z,11.92
2023-04-22T05:50:55.222Z,12.41
2023-04-22T05:53:23.167Z,12.65
2023-04-22T05:55:52.060Z,12.97
2023-04-22T05:58:20.254Z,13.29
2023-04-22T06:01:13.426Z,13.30
2023-04-22T06:03:52.154Z,13.27
2023-04-22T06:06:23.991Z,13.16
2023-04-22T06:08:52.374Z,13.01
2023-04-22T06:11:20.333Z,12.97
2023-04-22T06:13:48.170Z,13.22
2023-04-22T06:19:45.828Z,13.41
2023-04-22T06:22:14.065Z,13.10
2023-04-22T06:24:46.404Z,13.30
2023-04-22T06:27:17.057Z,13.46
2023-04-22T06:29:45.150Z,13.50
2023-04-22T06:32:13.941Z,13.43
2023-04-22T06:34:43.343Z,13.41
2023-04-22T06:37:20.483Z,13.44
2023-04-22T06:39:52.313Z,13.62
2023-04-22T06:42:31.126Z,14.06
2023-04-22T06:45:14.091Z,14.65
2023-04-22T06:47:57.008Z,15.31
2023-04-22T06:50:27.315Z,15.91
2023-04-22T06:52:59.299Z,16.23
2023-04-22T06:55:31.008Z,16.54
2023-04-22T06:58:02.211Z,16.88
2023-04-22T07:00:30.375Z,16.98
2023-04-22T07:02:59.019Z,17.11
2023-04-22T07:05:30.468Z,17.43
2023-04-22T07:08:04.178Z,17.68
2023-04-22T07:10:36.811Z,17.96
2023-04-22T07:13:15.249Z,17.98
2023-04-22T07:15:43.514Z,17.94
2023-04-22T07:18:11.719Z,17.91
2023-04-22T07:20:39.854Z,18.17
2023-04-22T07:23:08.245Z,18.54
2023-04-22T07:25:36.137Z,18.72
2023-04-22T07:28:04.373Z,18.99
2023-04-22T07:30:33.769Z,19.20
2023-04-22T07:33:02.083Z,19.46
2023-04-22T07:35:31.307Z,19.94
2023-04-22T07:37:59.400Z,20.39
2023-04-22T07:40:27.926Z,20.53
2023-04-22T07:42:55.930Z,20.61
2023-04-22T07:45:23.968Z,20.88
2023-04-22T07:47:52.028Z,21.12
2023-04-22T07:50:19.802Z,21.42
2023-04-22T07:52:47.670Z,21.25
2023-04-22T07:55:15.827Z,21.26
2023-04-22T07:57:43.731Z,21.50
2023-04-22T08:00:13.367Z,21.83
2023-04-22T08:02:41.692Z,21.99
2023-04-22T08:05:10.923Z,21.91
2023-04-22T08:07:39.036Z,21.88
2023-04-22T08:10:08.024Z,21.57
2023-04-22T08:12:36.685Z,21.24
2023-04-22T08:15:05.807Z,21.42
2023-04-22T08:17:35.619Z,21.65
2023-04-22T08:20:06.517Z,21.77
2023-04-22T08:22:35.302Z,21.97
2023-04-22T08:25:09.596Z,22.17
2023-04-22T08:27:41.722Z,22.27
2023-04-22T08:30:10.364Z,21.55
2023-04-22T08:32:38.433Z,21.22
2023-04-22T08:38:39.294Z,21.19
2023-04-22T08:41:07.146Z,21.68
2023-04-22T08:43:36.425Z,22.03
2023-04-22T08:46:04.567Z,22.44
2023-04-22T08:48:41.404Z,22.74
2023-04-22T08:51:18.197Z,22.73
2023-04-22T08:53:52.952Z,22.81
2023-04-22T08:56:27.087Z,22.78
2023-04-22T08:58:56.751Z,22.73
2023-04-22T09:01:26.424Z,22.86
2023-04-22T09:03:59.395Z,22.94
2023-04-22T09:06:27.453Z,23.01
2023-04-22T09:08:55.608Z,22.90
2023-04-22T09:11:23.565Z,22.89
2023-04-22T09:13:54.828Z,23.02
2023-04-22T09:16:26.075Z,23.31
2023-04-22T09:18:54.113Z,23.33
2023-04-22T09:21:31.607Z,23.45
2023-04-22T09:24:02.555Z,23.48
2023-04-22T09:26:36.733Z,23.62
2023-04-22T09:29:09.240Z,23.80
2023-04-22T09:31:37.487Z,23.77
2023-04-22T09:34:09.516Z,23.66
2023-04-22T09:36:37.321Z,23.68
2023-04-22T09:39:09.003Z,23.81
2023-04-22T11:13:47.511Z,22.96
2023-04-22T11:16:15.854Z,22.70
2023-04-22T11:18:46.759Z,22.46
2023-04-22T11:21:18.097Z,22.04
2023-04-22T11:23:52.849Z,21.77
2023-04-22T12:46:40.144Z,21.86
2023-04-22T14:34:40.328Z,20.68
2023-04-22T14:37:08.553Z,20.68
2023-04-22T14:49:48.294Z,20.69
2023-04-22T14:52:17.834Z,20.79
2023-04-22T14:58:53.380Z,20.92
2023-04-22T15:01:22.450Z,20.90
2023-04-22T15:03:51.578Z,21.04
2023-04-22T15:06:19.499Z,21.14
2023-04-22T15:08:47.944Z,21.13
2023-04-22T15:11:15.782Z,21.07
2023-04-22T15:13:44.535Z,20.99
2023-04-22T15:16:12.937Z,20.98
2023-04-22T15:18:42.987Z,20.91
2023-04-22T15:21:12.097Z,21.06
2023-04-22T15:23:41.430Z,21.12
2023-04-22T15:26:09.604Z,21.16
2023-04-22T15:28:38.808Z,21.18
2023-04-22T15:31:11.974Z,21.21
2023-04-22T15:33:42.801Z,21.10
2023-04-22T15:36:10.795Z,20.62
2023-04-22T15:38:39.851Z,20.28
2023-04-22T15:41:08.347Z,19.95
2023-04-22T15:43:41.507Z,19.65
2023-04-22T15:46:09.137Z,19.36
2023-04-22T15:48:41.436Z,19.13
2023-04-22T15:51:24.353Z,18.82
2023-04-22T15:54:04.006Z,18.59
2023-04-22T15:56:33.907Z,18.38
2023-04-22T15:59:02.300Z,18.24
2023-04-22T16:01:30.231Z,18.18
2023-04-22T16:03:59.794Z,18.14
2023-04-22T16:06:27.605Z,18.11
2023-04-22T16:08:56.673Z,18.08
2023-04-22T16:11:26.587Z,17.91
2023-04-22T16:14:00.387Z,17.93
2023-04-22T16:16:31.280Z,17.88
2023-04-22T16:18:59.967Z,17.81
2023-04-22T16:21:36.491Z,17.76
2023-04-22T16:24:06.791Z,17.75
2023-04-22T16:26:34.925Z,17.61
2023-04-22T16:29:02.858Z,17.63
2023-04-22T16:31:39.121Z,17.50
2023-04-22T16:34:07.230Z,17.40
2023-04-22T16:36:39.317Z,17.35
2023-04-22T16:39:14.863Z,17.23
2023-04-22T16:41:49.339Z,17.13
2023-04-22T16:47:27.250Z,16.92
2023-04-22T16:49:55.310Z,16.83
2023-04-22T16:52:23.070Z,16.77
2023-04-22T16:54:51.301Z,16.69
2023-04-22T16:57:21.019Z,16.59
2023-04-22T16:59:51.772Z,16.50
2023-04-22T17:02:20.050Z,16.44
2023-04-22T17:04:49.911Z,16.39
2023-04-22T17:07:18.058Z,16.33
2023-04-22T17:09:46.053Z,16.22
2023-04-22T17:12:15.615Z,16.13
2023-04-22T17:14:45.610Z,16.07
2023-04-22T17:17:18.279Z,15.98
2023-04-22T17:19:47.825Z,15.92
2023-04-22T17:22:17.920Z,15.86
2023-04-22T17:24:47.934Z,15.81
2023-04-22T17:27:16.293Z,15.72
2023-04-22T17:29:44.600Z,15.65
2023-04-22T17:32:14.813Z,15.56
2023-04-22T17:34:43.409Z,15.47
2023-04-22T17:37:16.879Z,15.40
2023-04-22T17:39:44.869Z,15.28
2023-04-22T17:42:16.245Z,15.18
2023-04-22T17:44:45.006Z,15.04
2023-04-22T17:47:21.325Z,14.94
2023-04-22T17:49:51.382Z,14.84
2023-04-22T17:52:24.862Z,14.62
2023-04-22T17:55:04.010Z,14.66
2023-04-22T17:57:50.455Z,14.57
2023-04-22T18:00:21.752Z,14.52
2023-04-22T18:02:50.715Z,14.39
2023-04-22T18:05:22.132Z,14.27
2023-04-22T18:07:50.176Z,14.17
2023-04-22T18:10:27.542Z,14.06
2023-04-22T18:12:56.146Z,13.98
2023-04-22T18:15:26.876Z,13.94
2023-04-22T18:17:55.097Z,13.88
2023-04-22T18:20:22.848Z,13.83
2023-04-22T18:22:51.642Z,13.79
2023-04-22T18:25:26.920Z,13.72
2023-04-22T18:27:54.665Z,13.69
2023-04-22T18:30:32.710Z,13.63
2023-04-22T18:33:04.466Z,13.56
2023-04-22T18:35:34.889Z,13.50
2023-04-22T18:38:03.258Z,13.45
2023-04-22T18:40:31.181Z,13.38
2023-04-22T18:43:03.348Z,13.30
2023-04-22T18:45:35.153Z,13.21
2023-04-22T18:48:04.461Z,13.11
2023-04-22T18:50:34.887Z,13.06
2023-04-22T18:53:02.801Z,13.00
2023-04-22T18:55:31.698Z,12.93
2023-04-22T18:57:59.571Z,12.85
2023-04-22T19:00:27.310Z,12.76
2023-04-22T19:02:55.665Z,12.64
2023-04-22T19:05:25.393Z,12.61
2023-04-22T19:07:53.717Z,12.53
2023-04-22T19:10:29.956Z,12.48
2023-04-22T19:12:58.881Z,12.40
2023-04-22T19:15:26.786Z,12.31
2023-04-22T19:17:54.933Z,12.21
2023-04-22T19:20:23.209Z,12.08
2023-04-22T19:22:51.343Z,11.97
2023-04-22T19:25:21.614Z,11.88
2023-04-22T19:27:50.518Z,11.80
2023-04-22T19:30:19.610Z,11.75
2023-04-22T19:32:52.184Z,11.68
2023-04-22T19:35:20.836Z,11.62
2023-04-22T19:37:49.066Z,11.57
2023-04-22T19:40:18.988Z,11.50
2023-04-22T19:42:49.195Z,11.43
2023-04-22T19:45:19.647Z,11.37
2023-04-22T19:47:48.494Z,11.32
2023-04-22T19:50:17.780Z,11.26
2023-04-22T19:52:47.303Z,11.23
2023-04-22T19:55:16.804Z,11.20
2023-04-22T19:57:45.692Z,11.17
2023-04-22T20:00:14.450Z,11.15
2023-04-22T20:02:43.949Z,11.12
2023-04-22T20:05:12.965Z,11.08
2023-04-22T20:07:45.646Z,11.04
2023-04-22T20:10:17.015Z,11.01
2023-04-22T20:12:46.202Z,10.98
2023-04-22T20:15:14.667Z,10.97
2023-04-22T20:17:43.061Z,10.95
2023-04-22T20:20:17.223Z,10.91
2023-04-22T20:24:29.008Z,10.88
2023-04-22T20:25:57.345Z,10.85
2023-04-22T20:28:32.730Z,10.81
2023-04-22T20:34:22.046Z,10.72
2023-04-22T20:36:54.185Z,10.66
2023-04-22T20:39:24.965Z,10.61
2023-04-22T20:41:59.053Z,10.57
2023-04-22T20:44:28.400Z,10.53
2023-04-22T20:46:58.312Z,10.47
2023-04-22T20:49:26.560Z,10.45
2023-04-22T20:51:56.024Z,10.40
2023-04-22T20:54:29.026Z,10.35
2023-04-22T20:56:54.096Z,10.29
2023-04-22T20:59:21.997Z,10.21
2023-04-22T21:01:52.467Z,10.16
2023-04-22T21:04:23.696Z,10.10
2023-04-22T21:06:54.297Z,10.05
2023-04-22T21:09:26.575Z,10.02
2023-04-22T21:11:55.046Z,9.99
2023-04-22T21:14:25.447Z,9.94
2023-04-22T21:17:00.975Z,9.91
2023-04-22T21:19:35.635Z,9.88
2023-04-22T21:22:05.514Z,9.86
2023-04-22T21:24:37.088Z,9.86
2023-04-22T21:27:07.025Z,9.83
2023-04-22T21:29:37.686Z,9.82
2023-04-22T21:32:09.430Z,9.79
2023-04-22T21:34:37.493Z,9.80
2023-04-22T21:37:07.262Z,9.78
2023-04-22T21:39:36.192Z,9.76
2023-04-22T21:42:06.241Z,9.74
2023-04-22T21:44:35.819Z,9.74
2023-04-22T21:47:04.533Z,9.72
2023-04-22T21:49:32.747Z,9.71
2023-04-22T21:52:00.778Z,9.69
2023-04-22T21:54:29.121Z,9.68
2023-04-22T21:56:57.367Z,9.65
2023-04-22T21:59:25.604Z,9.61
2023-04-22T22:01:53.877Z,9.57
2023-04-22T22:04:22.043Z,9.54
2023-04-22T22:06:50.280Z,9.51
2023-04-22T22:09:18.050Z,9.47
2023-04-22T22:11:46.036Z,9.44
2023-04-22T22:14:14.226Z,9.41
2023-04-22T22:16:43.243Z,9.39
2023-04-22T22:19:11.206Z,9.35
2023-04-22T22:21:38.916Z,9.30
2023-04-22T22:24:08.901Z,9.28
2023-04-22T22:26:38.832Z,9.29
2023-04-22T22:29:08.961Z,9.27
2023-04-22T22:31:36.978Z,9.26
2023-04-22T22:34:05.156Z,9.25
2023-04-22T22:36:34.355Z,9.25
2023-04-22T22:39:04.078Z,9.25
2023-04-22T22:41:33.762Z,9.23
2023-04-22T22:44:01.684Z,9.22
2023-04-22T22:46:30.721Z,9.24
2023-04-22T22:48:58.975Z,9.24
2023-04-22T22:51:28.834Z,9.24
2023-04-22T22:53:56.898Z,9.24
2023-04-22T22:56:25.211Z,9.25
2023-04-22T22:58:53.179Z,9.25
2023-04-22T23:01:21.657Z,9.25
2023-04-22T23:03:49.551Z,9.23
2023-04-22T23:06:17.511Z,9.21
2023-04-22T23:08:45.529Z,9.16
2023-04-22T23:11:13.508Z,9.12
2023-04-22T23:13:41.399Z,9.10
2023-04-22T23:16:09.728Z,9.05
2023-04-22T23:18:39.034Z,9.02
2023-04-22T23:21:07.210Z,8.97
2023-04-22T23:23:36.396Z,8.95
2023-04-22T23:26:04.928Z,8.92
2023-04-22T23:28:34.056Z,8.90
2023-04-22T23:31:05.837Z,8.86
2023-04-22T23:33:38.364Z,8.84
2023-04-22T23:36:16.454Z,8.82
2023-04-22T23:39:14.588Z,8.79
2023-04-22T23:41:42.387Z,8.78
2023-04-22T23:44:11.228Z,8.73
2023-04-22T23:46:38.939Z,8.70
2023-04-22T23:49:07.007Z,8.67
2023-04-22T23:51:35.154Z,8.64
2023-04-22T23:54:03.070Z,8.62
2023-04-22T23:56:31.478Z,8.61
2023-04-22T23:58:59.912Z,8.59
